Time;durP1;ratioP1;P1;durP2;ratioP2;P2;SDS_P1;SDS_P2;PMS_P1;PMS_P2;Temp;Humidity;BMP_temperature;BMP_pressure;BME280_temperature;BME280_humidity;BME280_pressure;Samples;Min_cycle;Max_cycle;Signal;HPM_P1;HPM_P2
2022/01/13 00:00:18;;;;;;;;;;;4.00;99.90;;;;;;5123808;28;19924;-79
2022/01/13 00:02:46;;;;;;;;;;;4.00;99.90;;;;;;5123245;28;20394;-79
2022/01/13 00:05:13;;;;;;;;;;;4.10;99.90;;;;;;5122740;28;19985;-80
2022/01/13 00:07:39;;;;;;;;;;;4.10;99.90;;;;;;5123407;28;20353;-79
2022/01/13 00:10:06;;;;;;;;;;;4.00;99.90;;;;;;5128866;27;19930;-79
2022/01/13 00:12:37;;;;;;;;;;;4.10;99.90;;;;;;5134598;27;19945;-79
2022/01/13 00:15:20;;;;;;;;;;;4.10;99.90;;;;;;5124360;28;19930;-80
2022/01/13 00:18:00;;;;;;;;;;;4.10;99.90;;;;;;5124202;28;19924;-80
2022/01/13 00:20:35;;;;;;;;;;;4.10;99.90;;;;;;5125735;28;19923;-79
2022/01/13 00:25:46;;;;;;;;;;;4.10;99.90;;;;;;5123237;28;19985;-80
2022/01/13 00:28:18;;;;;;;;;;;4.10;99.90;;;;;;5121717;28;19931;-80
2022/01/13 00:30:49;;;;;;;;;;;4.10;99.90;;;;;;5120881;28;20382;-80
2022/01/13 00:33:23;;;;;;;;;;;4.10;99.90;;;;;;5119832;28;19947;-80
2022/01/13 00:35:49;;;;;;;;;;;4.10;99.90;;;;;;5120166;28;19923;-80
2022/01/13 00:38:16;;;;;;;;;;;4.10;99.90;;;;;;5119969;28;20378;-80
2022/01/13 00:40:42;;;;;;;;;;;4.10;99.90;;;;;;5120634;28;20382;-79
2022/01/13 00:43:09;;;;;;;;;;;4.10;99.90;;;;;;5120413;28;20390;-79
2022/01/13 00:45:35;;;;;;;;;;;4.10;99.90;;;;;;5120866;28;20243;-80
2022/01/13 00:48:02;;;;;;;;;;;4.20;99.90;;;;;;5119590;28;19977;-80
2022/01/13 00:50:30;;;;;;;;;;;4.10;99.90;;;;;;5120942;28;19924;-79
2022/01/13 00:52:56;;;;;;;;;;;4.20;99.90;;;;;;5119632;28;19924;-80
2022/01/13 00:55:32;;;;;;;;;;;4.20;99.90;;;;;;5122282;28;19924;-79
2022/01/13 00:57:58;;;;;;;;;;;4.20;99.90;;;;;;5122546;28;19931;-79
2022/01/13 01:00:25;;;;;;;;;;;4.20;99.90;;;;;;5122913;28;19923;-79
2022/01/13 01:02:51;;;;;;;;;;;4.20;99.90;;;;;;5120236;28;19970;-80
2022/01/13 01:05:18;;;;;;;;;;;4.20;99.90;;;;;;5117976;28;19963;-80
2022/01/13 01:07:45;;;;;;;;;;;4.20;99.90;;;;;;5118051;28;19958;-80
2022/01/13 01:10:12;;;;;;;;;;;4.20;99.90;;;;;;5117910;27;19983;-79
2022/01/13 01:12:38;;;;;;;;;;;4.20;99.90;;;;;;5119552;28;19923;-80
2022/01/13 01:15:06;;;;;;;;;;;4.20;99.90;;;;;;5119074;28;20405;-80
2022/01/13 01:17:34;;;;;;;;;;;4.20;99.90;;;;;;5118540;28;20444;-80
2022/01/13 01:20:06;;;;;;;;;;;4.20;99.90;;;;;;5124307;28;19928;-80
2022/01/13 01:22:57;;;;;;;;;;;4.20;99.90;;;;;;5131311;27;19912;-79
2022/01/13 01:28:24;;;;;;;;;;;4.20;99.90;;;;;;5078871;28;19975;-79
2022/01/13 01:30:54;;;;;;;;;;;4.20;99.90;;;;;;5124441;28;19928;-79
2022/01/13 01:33:21;;;;;;;;;;;4.20;99.90;;;;;;5120317;28;19924;-79
2022/01/13 01:35:48;;;;;;;;;;;4.20;99.90;;;;;;5119088;28;19973;-78
2022/01/13 01:38:15;;;;;;;;;;;4.20;99.90;;;;;;5118407;28;19991;-80
2022/01/13 01:40:42;;;;;;;;;;;4.20;99.90;;;;;;5125720;28;19945;-78
2022/01/13 01:43:09;;;;;;;;;;;4.20;99.90;;;;;;5137110;28;19949;-78
2022/01/13 01:45:43;;;;;;;;;;;4.20;99.90;;;;;;5129810;28;20332;-79
2022/01/13 01:48:10;;;;;;;;;;;4.20;99.90;;;;;;5126429;28;20025;-78
2022/01/13 01:50:38;;;;;;;;;;;4.20;99.90;;;;;;5122056;28;19930;-79
2022/01/13 01:53:05;;;;;;;;;;;4.20;99.90;;;;;;5118328;27;20382;-79
2022/01/13 01:55:32;;;;;;;;;;;4.20;99.90;;;;;;5117676;28;20348;-78
2022/01/13 01:57:59;;;;;;;;;;;4.20;99.90;;;;;;5117977;28;20428;-79
2022/01/13 02:00:27;;;;;;;;;;;4.30;99.90;;;;;;5117373;28;20342;-78
2022/01/13 02:02:55;;;;;;;;;;;4.30;99.90;;;;;;5118564;27;20279;-79
2022/01/13 02:05:21;;;;;;;;;;;4.20;99.90;;;;;;5118486;28;19934;-78
2022/01/13 02:07:48;;;;;;;;;;;4.20;99.90;;;;;;5121331;28;19959;-79
2022/01/13 02:10:16;;;;;;;;;;;4.20;99.90;;;;;;5134541;28;19924;-78
2022/01/13 02:12:46;;;;;;;;;;;4.30;99.90;;;;;;5137811;28;20355;-78
2022/01/13 02:15:35;;;;;;;;;;;4.20;99.90;;;;;;5136077;28;19931;-78
2022/01/13 02:18:03;;;;;;;;;;;4.30;99.90;;;;;;5136028;28;19966;-78
2022/01/13 02:20:47;;;;;;;;;;;4.20;99.90;;;;;;5135648;28;19924;-78
2022/01/13 02:23:14;;;;;;;;;;;4.30;99.90;;;;;;5135961;28;19930;-78
2022/01/13 02:25:40;;;;;;;;;;;4.20;99.90;;;;;;5135671;28;19924;-78
2022/01/13 02:28:07;;;;;;;;;;;4.20;99.90;;;;;;5135893;28;19973;-78
2022/01/13 02:30:33;;;;;;;;;;;4.20;99.90;;;;;;5132277;28;19923;-78
2022/01/13 02:33:00;;;;;;;;;;;4.20;99.90;;;;;;5118660;28;20506;-79
2022/01/13 02:35:33;;;;;;;;;;;4.20;99.90;;;;;;5118242;28;19969;-78
2022/01/13 02:38:01;;;;;;;;;;;4.20;99.90;;;;;;5117668;28;19924;-78
2022/01/13 02:40:28;;;;;;;;;;;4.20;99.90;;;;;;5117762;28;19955;-78
2022/01/13 02:42:54;;;;;;;;;;;4.20;99.90;;;;;;5117643;28;19945;-79
2022/01/13 02:45:21;;;;;;;;;;;4.20;99.90;;;;;;5117972;28;19946;-79
2022/01/13 02:48:13;;;;;;;;;;;4.20;99.90;;;;;;5117709;28;19924;-78
2022/01/13 02:50:41;;;;;;;;;;;4.20;99.90;;;;;;5117640;28;19980;-79
2022/01/13 02:53:09;;;;;;;;;;;4.20;99.90;;;;;;5117295;28;19924;-79
2022/01/13 02:55:36;;;;;;;;;;;4.20;99.90;;;;;;5117303;28;20274;-79
2022/01/13 02:58:03;;;;;;;;;;;4.20;99.90;;;;;;5117770;28;19927;-78
2022/01/13 03:00:30;;;;;;;;;;;4.20;99.90;;;;;;5117419;28;20397;-79
2022/01/13 03:02:56;;;;;;;;;;;4.20;99.90;;;;;;5118044;28;19924;-78
2022/01/13 03:05:23;;;;;;;;;;;4.20;99.90;;;;;;5118128;28;20443;-78
2022/01/13 03:07:52;;;;;;;;;;;4.20;99.90;;;;;;5117970;28;19955;-79
2022/01/13 03:10:19;;;;;;;;;;;4.10;99.90;;;;;;5117707;28;19924;-78
2022/01/13 03:12:46;;;;;;;;;;;4.20;99.90;;;;;;5120611;28;19973;-78
2022/01/13 03:15:13;;;;;;;;;;;4.10;99.90;;;;;;5121685;28;19928;-78
2022/01/13 03:17:39;;;;;;;;;;;4.10;99.90;;;;;;5123688;28;19966;-79
2022/01/13 03:20:06;;;;;;;;;;;4.10;99.90;;;;;;5140179;28;19931;-78
2022/01/13 03:22:33;;;;;;;;;;;4.10;99.90;;;;;;5122555;28;20377;-79
2022/01/13 03:24:59;;;;;;;;;;;4.10;99.90;;;;;;5121135;28;19924;-78
2022/01/13 03:27:34;;;;;;;;;;;4.10;99.90;;;;;;5120284;28;20432;-78
2022/01/13 03:30:03;;;;;;;;;;;4.10;99.90;;;;;;5121081;28;19930;-78
2022/01/13 03:32:29;;;;;;;;;;;4.10;99.90;;;;;;5123749;28;19924;-79
2022/01/13 03:34:56;;;;;;;;;;;4.10;99.90;;;;;;5125850;28;20417;-79
2022/01/13 03:37:22;;;;;;;;;;;4.10;99.90;;;;;;5123257;28;19928;-78
2022/01/13 03:39:49;;;;;;;;;;;4.10;99.90;;;;;;5125084;28;19949;-79
2022/01/13 03:42:16;;;;;;;;;;;4.10;99.90;;;;;;5123670;28;19931;-79
2022/01/13 03:44:44;;;;;;;;;;;4.10;99.90;;;;;;5128852;28;19927;-79
2022/01/13 03:47:10;;;;;;;;;;;4.10;99.90;;;;;;5122426;28;19973;-79
2022/01/13 03:49:37;;;;;;;;;;;4.10;99.90;;;;;;5121380;28;19930;-79
2022/01/13 03:52:39;;;;;;;;;;;4.10;99.90;;;;;;5119895;28;19973;-79
2022/01/13 03:55:24;;;;;;;;;;;4.10;99.90;;;;;;5120107;28;19924;-79
2022/01/13 03:58:18;;;;;;;;;;;4.10;99.90;;;;;;5119975;28;19945;-79
2022/01/13 04:01:18;;;;;;;;;;;4.10;99.90;;;;;;5119797;28;19923;-80
2022/01/13 04:03:45;;;;;;;;;;;4.10;99.90;;;;;;5119900;28;19931;-80
2022/01/13 04:06:40;;;;;;;;;;;4.00;99.90;;;;;;5120577;28;19934;-80
2022/01/13 04:09:09;;;;;;;;;;;4.00;99.90;;;;;;5122416;28;19923;-80
2022/01/13 04:11:35;;;;;;;;;;;4.10;99.90;;;;;;5135353;28;19982;-78
2022/01/13 04:14:07;;;;;;;;;;;4.00;99.90;;;;;;5121191;28;19928;-80
2022/01/13 04:16:36;;;;;;;;;;;4.10;99.90;;;;;;5119843;28;20340;-80
2022/01/13 04:19:04;;;;;;;;;;;4.00;99.90;;;;;;5119899;28;19927;-79
2022/01/13 04:21:32;;;;;;;;;;;4.00;99.90;;;;;;5123764;28;19973;-81
2022/01/13 04:23:59;;;;;;;;;;;4.00;99.90;;;;;;5127204;28;19945;-81
2022/01/13 04:26:29;;;;;;;;;;;4.00;99.90;;;;;;5126015;28;19928;-80
2022/01/13 04:29:03;;;;;;;;;;;4.00;99.90;;;;;;5121447;28;19923;-81
2022/01/13 04:31:30;;;;;;;;;;;4.00;99.90;;;;;;5119413;28;19950;-80
2022/01/13 04:33:57;;;;;;;;;;;4.00;99.90;;;;;;5120332;28;19923;-80
2022/01/13 04:36:24;;;;;;;;;;;4.00;99.90;;;;;;5119689;28;19983;-78
2022/01/13 04:38:50;;;;;;;;;;;3.90;99.90;;;;;;5119699;28;19924;-79
2022/01/13 04:41:27;;;;;;;;;;;3.90;99.90;;;;;;5120697;28;20314;-79
2022/01/13 04:43:54;;;;;;;;;;;3.90;99.90;;;;;;5119912;28;19987;-79
2022/01/13 04:46:21;;;;;;;;;;;3.90;99.90;;;;;;5119664;28;19994;-80
2022/01/13 04:48:47;;;;;;;;;;;3.90;99.90;;;;;;5120670;27;19924;-80
2022/01/13 04:51:15;;;;;;;;;;;3.90;99.90;;;;;;5119580;28;19978;-80
2022/01/13 04:53:41;;;;;;;;;;;3.90;99.90;;;;;;5120243;28;20057;-80
2022/01/13 04:56:11;;;;;;;;;;;3.90;99.90;;;;;;5120411;28;19977;-79
2022/01/13 04:58:38;;;;;;;;;;;3.90;99.90;;;;;;5129376;28;19963;-79
2022/01/13 05:01:04;;;;;;;;;;;3.90;99.90;;;;;;5130809;28;19950;-79
2022/01/13 05:03:31;;;;;;;;;;;3.90;99.90;;;;;;5130203;28;19930;-78
2022/01/13 05:05:57;;;;;;;;;;;4.00;99.90;;;;;;5132531;28;19931;-79
2022/01/13 05:08:25;;;;;;;;;;;3.90;99.90;;;;;;5128458;28;19928;-79
2022/01/13 05:10:52;;;;;;;;;;;3.90;99.90;;;;;;5131520;28;19980;-80
2022/01/13 05:13:18;;;;;;;;;;;3.90;99.90;;;;;;5130585;28;19928;-78
2022/01/13 05:15:45;;;;;;;;;;;3.90;99.90;;;;;;5133196;28;19969;-78
2022/01/13 05:18:29;;;;;;;;;;;3.90;99.90;;;;;;5134746;28;19945;-78
2022/01/13 05:21:02;;;;;;;;;;;3.90;99.90;;;;;;5137667;28;19958;-79
2022/01/13 05:23:31;;;;;;;;;;;3.90;99.90;;;;;;5138308;28;19995;-80
2022/01/13 05:25:58;;;;;;;;;;;3.90;99.90;;;;;;5136760;28;19954;-80
2022/01/13 05:28:29;;;;;;;;;;;3.90;99.90;;;;;;5132856;22;19924;-81
2022/01/13 05:31:10;;;;;;;;;;;3.80;99.90;;;;;;5118584;28;20267;-80
2022/01/13 05:33:48;;;;;;;;;;;3.90;99.90;;;;;;5118451;28;19924;-79
2022/01/13 05:36:19;;;;;;;;;;;3.90;99.90;;;;;;5117724;28;20031;-80
2022/01/13 05:38:55;;;;;;;;;;;3.80;99.90;;;;;;5120642;28;19930;-82
2022/01/13 05:41:31;;;;;;;;;;;3.90;99.90;;;;;;5122627;28;19923;-82
2022/01/13 05:44:09;;;;;;;;;;;3.90;99.90;;;;;;5121325;28;19928;-81
2022/01/13 05:46:42;;;;;;;;;;;3.90;99.90;;;;;;5120800;28;19924;-78
2022/01/13 05:49:11;;;;;;;;;;;4.70;99.90;;;;;;5124330;28;19924;-80
2022/01/13 05:51:44;;;;;;;;;;;3.80;99.90;;;;;;5128372;28;19927;-79
2022/01/13 05:54:18;;;;;;;;;;;3.90;99.90;;;;;;5130945;28;19911;-81
2022/01/13 05:56:45;;;;;;;;;;;3.90;99.90;;;;;;5134475;28;19928;-81
2022/01/13 05:59:11;;;;;;;;;;;3.90;99.90;;;;;;5132862;28;20449;-82
2022/01/13 06:01:40;;;;;;;;;;;4.30;99.90;;;;;;5132594;28;19927;-82
2022/01/13 06:04:07;;;;;;;;;;;3.90;99.90;;;;;;5135776;28;19932;-81
2022/01/13 06:06:35;;;;;;;;;;;4.00;99.90;;;;;;5135982;28;19946;-81
2022/01/13 06:09:04;;;;;;;;;;;3.70;99.90;;;;;;5127660;28;19923;-80
2022/01/13 06:11:38;;;;;;;;;;;3.80;99.90;;;;;;5120215;28;19924;-80
2022/01/13 06:14:07;;;;;;;;;;;3.90;99.90;;;;;;5120426;28;19967;-82
2022/01/13 06:16:37;;;;;;;;;;;3.90;99.90;;;;;;5120392;28;20386;-82
2022/01/13 06:19:09;;;;;;;;;;;3.10;99.90;;;;;;5120619;28;19977;-79
2022/01/13 06:21:36;;;;;;;;;;;4.40;99.90;;;;;;5119334;28;19973;-79
2022/01/13 06:24:10;;;;;;;;;;;3.80;99.90;;;;;;5126809;28;19946;-79
2022/01/13 06:29:33;;;;;;;;;;;3.90;99.90;;;;;;5118109;28;19923;-81
2022/01/13 06:32:32;;;;;;;;;;;3.80;99.90;;;;;;5117794;28;20390;-81
2022/01/13 06:35:10;;;;;;;;;;;4.10;99.90;;;;;;5118095;28;19930;-81
2022/01/13 06:37:40;;;;;;;;;;;3.90;99.90;;;;;;5118028;28;19931;-81
2022/01/13 06:40:16;;;;;;;;;;;3.90;99.90;;;;;;5120086;28;19924;-81
2022/01/13 06:46:11;;;;;;;;;;;3.90;99.90;;;;;;5120593;28;20286;-81
2022/01/13 06:48:51;;;;;;;;;;;5.80;99.90;;;;;;5111330;28;19979;-80
2022/01/13 06:52:01;;;;;;;;;;;3.90;99.90;;;;;;5127733;28;19923;-79
2022/01/13 06:54:51;;;;;;;;;;;3.70;99.90;;;;;;5127406;28;19928;-80
2022/01/13 06:57:46;;;;;;;;;;;4.90;99.90;;;;;;5126645;28;19950;-81
2022/01/13 07:00:39;;;;;;;;;;;4.40;99.90;;;;;;5124365;28;19923;-79
2022/01/13 07:03:05;;;;;;;;;;;4.00;99.90;;;;;;5122575;28;19924;-78
2022/01/13 07:05:35;;;;;;;;;;;3.90;99.90;;;;;;5125199;28;20036;-80
2022/01/13 07:08:02;;;;;;;;;;;4.00;99.90;;;;;;5118541;28;19924;-81
2022/01/13 07:10:40;;;;;;;;;;;4.00;99.90;;;;;;5119600;28;19973;-81
2022/01/13 07:13:07;;;;;;;;;;;4.00;99.90;;;;;;5118395;28;19924;-80
2022/01/13 07:15:41;;;;;;;;;;;3.90;99.90;;;;;;5118019;28;19924;-81
2022/01/13 07:18:07;;;;;;;;;;;3.40;99.90;;;;;;5117318;28;19987;-82
2022/01/13 07:20:34;;;;;;;;;;;3.90;99.90;;;;;;5117887;28;19923;-81
2022/01/13 07:23:01;;;;;;;;;;;3.90;99.90;;;;;;5118855;28;20343;-80
2022/01/13 07:25:31;;;;;;;;;;;3.90;99.90;;;;;;5118325;28;19928;-81
2022/01/13 07:27:58;;;;;;;;;;;3.90;99.90;;;;;;5117798;28;19924;-82
2022/01/13 07:30:24;;;;;;;;;;;4.00;99.90;;;;;;5118224;28;19970;-81
2022/01/13 07:32:52;;;;;;;;;;;3.90;99.90;;;;;;5117820;28;20041;-80
2022/01/13 07:35:19;;;;;;;;;;;4.00;99.90;;;;;;5119356;28;20386;-79
2022/01/13 07:37:45;;;;;;;;;;;4.00;99.90;;;;;;5134370;28;19923;-79
2022/01/13 07:40:15;;;;;;;;;;;4.00;99.90;;;;;;5131098;27;20282;-78
2022/01/13 07:42:42;;;;;;;;;;;4.00;99.90;;;;;;5121205;28;19930;-81
2022/01/13 07:45:09;;;;;;;;;;;4.00;99.90;;;;;;5118124;28;19931;-81
2022/01/13 07:47:36;;;;;;;;;;;4.00;99.90;;;;;;5117347;28;19975;-83
2022/01/13 07:50:07;;;;;;;;;;;4.00;99.90;;;;;;5118252;28;19924;-82
2022/01/13 07:52:33;;;;;;;;;;;4.00;99.90;;;;;;5119442;28;19931;-80
2022/01/13 07:55:00;;;;;;;;;;;4.00;99.90;;;;;;5124182;28;19931;-82
2022/01/13 07:57:26;;;;;;;;;;;4.00;99.90;;;;;;5118366;28;19974;-80
2022/01/13 07:59:53;;;;;;;;;;;4.00;99.90;;;;;;5121293;28;19924;-81
2022/01/13 08:02:23;;;;;;;;;;;4.00;99.90;;;;;;5122654;28;19987;-81
2022/01/13 08:04:50;;;;;;;;;;;4.00;99.90;;;;;;5124492;28;19973;-80
2022/01/13 08:07:18;;;;;;;;;;;3.90;99.90;;;;;;5122721;28;19924;-78
2022/01/13 08:09:46;;;;;;;;;;;4.20;99.90;;;;;;5122566;28;20354;-80
2022/01/13 08:12:13;;;;;;;;;;;4.10;99.90;;;;;;5124314;28;19923;-81
2022/01/13 08:14:40;;;;;;;;;;;4.00;99.90;;;;;;5124256;28;19980;-80
2022/01/13 08:17:17;;;;;;;;;;;4.10;99.90;;;;;;5123230;28;19969;-80
2022/01/13 08:19:46;;;;;;;;;;;3.90;99.90;;;;;;5131379;28;19963;-81
2022/01/13 08:22:15;;;;;;;;;;;3.70;99.90;;;;;;5128527;28;19920;-81
2022/01/13 08:24:43;;;;;;;;;;;4.00;99.90;;;;;;5123847;28;19995;-82
2022/01/13 08:27:10;;;;;;;;;;;4.00;99.90;;;;;;5121730;28;20014;-81
2022/01/13 08:29:36;;;;;;;;;;;4.00;99.90;;;;;;5122863;28;19924;-82
2022/01/13 08:32:03;;;;;;;;;;;4.00;99.90;;;;;;5124536;28;20385;-81
2022/01/13 08:34:30;;;;;;;;;;;4.00;99.90;;;;;;5126470;28;19924;-81
2022/01/13 08:36:56;;;;;;;;;;;4.20;99.90;;;;;;5126714;28;19931;-82
2022/01/13 08:39:23;;;;;;;;;;;4.00;99.90;;;;;;5126810;28;19950;-81
2022/01/13 08:41:51;;;;;;;;;;;4.00;99.90;;;;;;5131861;28;19915;-81
2022/01/13 08:44:18;;;;;;;;;;;4.10;99.90;;;;;;5127750;28;19985;-81
2022/01/13 08:46:45;;;;;;;;;;;4.10;99.90;;;;;;5122965;28;19945;-81
2022/01/13 08:49:14;;;;;;;;;;;4.40;99.90;;;;;;5127464;28;19932;-82
2022/01/13 08:51:41;;;;;;;;;;;3.80;99.90;;;;;;5125540;28;20263;-79
2022/01/13 08:54:11;;;;;;;;;;;3.90;99.90;;;;;;5123811;28;19931;-83
2022/01/13 08:56:37;;;;;;;;;;;4.30;99.90;;;;;;5123588;28;19923;-82
2022/01/13 08:59:06;;;;;;;;;;;4.00;99.90;;;;;;5123719;28;19923;-81
2022/01/13 09:01:32;;;;;;;;;;;3.60;99.90;;;;;;5123548;28;19924;-81
2022/01/13 09:04:00;;;;;;;;;;;3.80;99.90;;;;;;5123014;28;19927;-81
2022/01/13 09:06:30;;;;;;;;;;;4.00;99.90;;;;;;5124793;28;19924;-82
2022/01/13 09:08:57;;;;;;;;;;;4.20;99.90;;;;;;5126374;28;19923;-81
2022/01/13 09:11:24;;;;;;;;;;;4.30;99.90;;;;;;5138345;28;19928;-81
2022/01/13 09:13:57;;;;;;;;;;;3.70;99.90;;;;;;5134583;28;19989;-81
2022/01/13 09:16:27;;;;;;;;;;;3.90;99.90;;;;;;5125413;28;20022;-82
2022/01/13 09:19:07;;;;;;;;;;;4.00;99.90;;;;;;5137203;28;19914;-82
2022/01/13 09:21:37;;;;;;;;;;;4.20;99.90;;;;;;5134615;28;20367;-80
2022/01/13 09:24:05;;;;;;;;;;;4.30;99.90;;;;;;5126266;28;19957;-82
2022/01/13 09:26:31;;;;;;;;;;;4.20;99.90;;;;;;5124812;28;19924;-80
2022/01/13 09:28:58;;;;;;;;;;;4.20;99.90;;;;;;5124200;28;20428;-81
2022/01/13 09:31:27;;;;;;;;;;;3.90;99.90;;;;;;5123036;28;20310;-81
2022/01/13 09:33:54;;;;;;;;;;;4.30;99.90;;;;;;5123936;28;20274;-82
2022/01/13 09:36:20;;;;;;;;;;;3.90;99.90;;;;;;5124412;28;20015;-82
2022/01/13 09:38:47;;;;;;;;;;;4.30;99.90;;;;;;5127943;28;19924;-79
2022/01/13 09:41:15;;;;;;;;;;;4.20;99.90;;;;;;5126205;28;19942;-81
2022/01/13 09:43:44;;;;;;;;;;;4.30;99.90;;;;;;5121907;28;20382;-80
2022/01/13 09:46:11;;;;;;;;;;;4.40;99.90;;;;;;5121795;28;19923;-81
2022/01/13 09:48:40;;;;;;;;;;;4.50;99.90;;;;;;5119982;28;19966;-81
2022/01/13 09:51:07;;;;;;;;;;;3.90;99.90;;;;;;5120668;28;19946;-81
2022/01/13 09:53:33;;;;;;;;;;;4.30;99.90;;;;;;5122507;28;19928;-82
2022/01/13 09:56:00;;;;;;;;;;;4.30;99.90;;;;;;5138021;28;19945;-81
2022/01/13 09:58:27;;;;;;;;;;;3.90;99.90;;;;;;5122153;28;20392;-81
2022/01/13 10:00:54;;;;;;;;;;;4.00;99.90;;;;;;5124363;28;20370;-81
2022/01/13 10:03:25;;;;;;;;;;;4.10;99.90;;;;;;5129091;28;19972;-80
2022/01/13 10:05:54;;;;;;;;;;;3.90;99.90;;;;;;5130874;28;19939;-83
2022/01/13 10:08:21;;;;;;;;;;;4.10;99.90;;;;;;5127849;28;19934;-78
2022/01/13 10:10:48;;;;;;;;;;;4.50;99.90;;;;;;5128098;28;19931;-80
2022/01/13 10:13:23;;;;;;;;;;;4.20;99.90;;;;;;5126987;28;19954;-81
2022/01/13 10:18:38;;;;;;;;;;;4.40;99.90;;;;;;5123760;28;19927;-81
2022/01/13 10:21:07;;;;;;;;;;;4.40;99.90;;;;;;5120877;28;19924;-81
2022/01/13 10:23:33;;;;;;;;;;;4.30;99.90;;;;;;5121051;28;19927;-82
2022/01/13 10:26:07;;;;;;;;;;;4.30;99.90;;;;;;5121688;28;19963;-79
2022/01/13 10:28:34;;;;;;;;;;;4.30;99.90;;;;;;5121747;28;19924;-82
2022/01/13 10:31:00;;;;;;;;;;;4.30;99.90;;;;;;5121447;28;19924;-81
2022/01/13 10:33:28;;;;;;;;;;;4.30;99.90;;;;;;5121406;28;20405;-81
2022/01/13 10:35:56;;;;;;;;;;;4.30;99.90;;;;;;5121573;28;20439;-82
2022/01/13 10:38:24;;;;;;;;;;;4.30;99.90;;;;;;5122602;28;19930;-81
2022/01/13 10:40:53;;;;;;;;;;;4.40;99.90;;;;;;5123936;28;19924;-81
2022/01/13 10:43:22;;;;;;;;;;;4.30;99.90;;;;;;5122659;28;21300;-81
2022/01/13 10:45:49;;;;;;;;;;;4.30;99.90;;;;;;5123342;28;19962;-82
2022/01/13 10:48:18;;;;;;;;;;;4.40;99.90;;;;;;5120363;28;19924;-81
2022/01/13 10:50:47;;;;;;;;;;;4.40;99.90;;;;;;5121376;28;20390;-80
2022/01/13 10:53:17;;;;;;;;;;;4.40;99.90;;;;;;5120514;28;20010;-81
2022/01/13 10:55:47;;;;;;;;;;;4.40;99.90;;;;;;5122763;28;19924;-81
2022/01/13 10:58:14;;;;;;;;;;;4.60;99.90;;;;;;5125828;28;19924;-81
2022/01/13 11:00:42;;;;;;;;;;;4.30;99.90;;;;;;5126902;28;19924;-79
2022/01/13 11:03:10;;;;;;;;;;;4.40;99.90;;;;;;5128017;28;19924;-81
2022/01/13 11:05:38;;;;;;;;;;;4.40;99.90;;;;;;5121371;28;20018;-82
2022/01/13 11:08:05;;;;;;;;;;;4.30;99.90;;;;;;5119403;28;19923;-80
2022/01/13 11:10:32;;;;;;;;;;;4.50;99.90;;;;;;5118170;28;19924;-82
2022/01/13 11:13:03;;;;;;;;;;;4.50;99.90;;;;;;5118157;28;19928;-82
2022/01/13 11:15:34;;;;;;;;;;;4.40;99.90;;;;;;5119994;28;20275;-82
2022/01/13 11:18:01;;;;;;;;;;;4.50;99.90;;;;;;5118956;28;19924;-82
2022/01/13 11:20:28;;;;;;;;;;;4.40;99.90;;;;;;5119649;28;19924;-79
2022/01/13 11:22:55;;;;;;;;;;;4.50;99.90;;;;;;5118024;28;19924;-82
2022/01/13 11:25:24;;;;;;;;;;;4.50;99.90;;;;;;5118224;28;20386;-82
2022/01/13 11:27:51;;;;;;;;;;;4.50;99.90;;;;;;5142840;22;19930;-79
2022/01/13 11:30:20;;;;;;;;;;;4.60;99.90;;;;;;5120741;28;20024;-79
2022/01/13 11:32:47;;;;;;;;;;;4.50;99.90;;;;;;5120556;28;19924;-79
2022/01/13 11:35:15;;;;;;;;;;;4.60;99.90;;;;;;5122039;28;19924;-80
2022/01/13 11:37:42;;;;;;;;;;;4.60;99.90;;;;;;5124938;28;19931;-80
2022/01/13 11:40:29;;;;;;;;;;;4.60;99.90;;;;;;5123660;28;19927;-82
2022/01/13 11:42:56;;;;;;;;;;;4.50;99.90;;;;;;5122976;28;19938;-80
2022/01/13 11:45:25;;;;;;;;;;;4.50;99.90;;;;;;5123147;28;19973;-80
2022/01/13 11:48:10;;;;;;;;;;;4.60;99.90;;;;;;5123295;28;20436;-79
2022/01/13 11:50:43;;;;;;;;;;;4.50;99.90;;;;;;5125192;28;19923;-80
2022/01/13 11:53:18;;;;;;;;;;;4.60;99.90;;;;;;5122994;28;19927;-80
2022/01/13 11:55:50;;;;;;;;;;;4.60;99.90;;;;;;5127967;28;19963;-80
2022/01/13 11:58:18;;;;;;;;;;;4.60;99.90;;;;;;5127301;28;19924;-80
2022/01/13 12:00:47;;;;;;;;;;;4.60;99.90;;;;;;5134812;28;20397;-80
2022/01/13 12:03:24;;;;;;;;;;;4.60;99.90;;;;;;5133944;28;19928;-80
2022/01/13 12:05:50;;;;;;;;;;;4.60;99.90;;;;;;5129971;28;19928;-80
2022/01/13 12:08:32;;;;;;;;;;;4.60;99.90;;;;;;5125934;28;20010;-80
2022/01/13 12:10:58;;;;;;;;;;;4.60;99.90;;;;;;5125557;27;19973;-80
2022/01/13 12:13:33;;;;;;;;;;;4.70;99.90;;;;;;5123774;27;19923;-80
2022/01/13 12:16:01;;;;;;;;;;;4.70;99.90;;;;;;5124042;28;19931;-80
2022/01/13 12:18:42;;;;;;;;;;;4.70;99.90;;;;;;5123765;28;19950;-80
2022/01/13 12:21:24;;;;;;;;;;;4.80;99.90;;;;;;5130385;28;19999;-80
2022/01/13 12:23:50;;;;;;;;;;;4.80;99.90;;;;;;5129524;28;19930;-81
2022/01/13 12:26:32;;;;;;;;;;;4.80;99.90;;;;;;5121360;28;20439;-80
2022/01/13 12:29:09;;;;;;;;;;;4.80;99.90;;;;;;5123023;28;20329;-81
2022/01/13 12:31:48;;;;;;;;;;;4.80;99.90;;;;;;5122622;28;19924;-80
2022/01/13 12:34:20;;;;;;;;;;;4.80;99.90;;;;;;5122920;28;19997;-80
2022/01/13 12:36:46;;;;;;;;;;;4.80;99.90;;;;;;5122124;28;19950;-80
2022/01/13 12:39:15;;;;;;;;;;;4.80;99.90;;;;;;5121249;28;19923;-80
2022/01/13 12:41:52;;;;;;;;;;;4.90;99.90;;;;;;5122931;28;19934;-81
2022/01/13 12:45:27;;;;;;;;;;;4.90;99.90;;;;;;5131714;28;19923;-80
2022/01/13 12:47:09;;;;;;;;;;;4.90;99.90;;;;;;5128586;28;19931;-80
2022/01/13 12:49:36;;;;;;;;;;;4.90;99.90;;;;;;5126272;28;20031;-81
2022/01/13 12:52:03;;;;;;;;;;;4.90;99.90;;;;;;5125386;28;19959;-81
2022/01/13 12:54:30;;;;;;;;;;;4.90;99.90;;;;;;5128505;28;19970;-80
2022/01/13 12:56:56;;;;;;;;;;;4.90;99.90;;;;;;5128867;28;19931;-80
2022/01/13 12:59:23;;;;;;;;;;;4.90;99.90;;;;;;5131391;28;19977;-80
2022/01/13 13:01:50;;;;;;;;;;;5.00;99.90;;;;;;5130738;28;19928;-81
2022/01/13 13:04:18;;;;;;;;;;;5.00;99.90;;;;;;5122411;28;19937;-80
2022/01/13 13:06:47;;;;;;;;;;;5.00;99.90;;;;;;5121454;28;20448;-81
2022/01/13 13:09:14;;;;;;;;;;;5.00;99.90;;;;;;5120879;28;19930;-80
2022/01/13 13:11:43;;;;;;;;;;;5.00;99.90;;;;;;5121761;28;20371;-81
2022/01/13 13:14:16;;;;;;;;;;;5.00;99.90;;;;;;5123298;28;19993;-80
2022/01/13 13:16:45;;;;;;;;;;;5.00;99.90;;;;;;5124890;28;20097;-81
2022/01/13 13:19:14;;;;;;;;;;;5.00;99.90;;;;;;5126397;28;19931;-81
2022/01/13 13:21:44;;;;;;;;;;;5.10;99.90;;;;;;5126442;28;19931;-80
2022/01/13 13:24:11;;;;;;;;;;;5.00;99.90;;;;;;5128382;28;20390;-80
2022/01/13 13:26:37;;;;;;;;;;;5.00;99.90;;;;;;5127479;28;19930;-80
2022/01/13 13:29:04;;;;;;;;;;;5.10;99.90;;;;;;5133302;28;19924;-80
2022/01/13 13:31:31;;;;;;;;;;;5.10;99.90;;;;;;5139165;27;19959;-80
2022/01/13 13:33:59;;;;;;;;;;;5.10;99.90;;;;;;5126353;28;19982;-80
2022/01/13 13:36:27;;;;;;;;;;;5.10;99.90;;;;;;5125057;28;19946;-80
2022/01/13 13:38:56;;;;;;;;;;;5.10;99.90;;;;;;5122372;28;19945;-80
2022/01/13 13:41:27;;;;;;;;;;;5.10;99.90;;;;;;5121617;28;19924;-80
2022/01/13 13:43:54;;;;;;;;;;;5.10;99.90;;;;;;5121499;28;19936;-80
2022/01/13 13:46:21;;;;;;;;;;;5.20;99.90;;;;;;5122208;28;19927;-80
2022/01/13 13:48:48;;;;;;;;;;;5.20;99.90;;;;;;5120905;28;19963;-80
2022/01/13 13:51:15;;;;;;;;;;;5.20;99.90;;;;;;5119886;28;19923;-80
2022/01/13 13:53:57;;;;;;;;;;;5.10;99.90;;;;;;5120481;28;19949;-81
2022/01/13 13:56:27;;;;;;;;;;;5.20;99.90;;;;;;5101668;28;19970;-80
2022/01/13 13:58:54;;;;;;;;;;;5.20;99.90;;;;;;5120161;28;19946;-80
2022/01/13 14:01:20;;;;;;;;;;;5.20;99.90;;;;;;5119850;28;19984;-80
2022/01/13 14:03:47;;;;;;;;;;;5.20;99.90;;;;;;5121525;28;19923;-79
2022/01/13 14:06:37;;;;;;;;;;;5.20;99.90;;;;;;5125117;28;19924;-80
2022/01/13 14:09:04;;;;;;;;;;;5.10;99.90;;;;;;5124615;28;19923;-80
2022/01/13 14:11:42;;;;;;;;;;;5.10;99.90;;;;;;5124170;28;20306;-80
2022/01/13 14:14:09;;;;;;;;;;;5.10;99.90;;;;;;5123384;28;19930;-79
2022/01/13 14:16:36;;;;;;;;;;;5.10;99.90;;;;;;5120939;28;20378;-80
2022/01/13 14:19:07;;;;;;;;;;;5.10;99.90;;;;;;5121346;28;20291;-81
2022/01/13 14:21:55;;;;;;;;;;;5.10;99.90;;;;;;5126125;28;19970;-81
2022/01/13 14:24:32;;;;;;;;;;;5.10;99.90;;;;;;5124069;28;19924;-80
2022/01/13 14:27:06;;;;;;;;;;;5.10;99.90;;;;;;5128242;28;19976;-81
2022/01/13 14:29:33;;;;;;;;;;;5.00;99.90;;;;;;5125509;28;19955;-81
2022/01/13 14:32:13;;;;;;;;;;;5.10;99.90;;;;;;5119887;28;20429;-81
2022/01/13 14:34:41;;;;;;;;;;;5.00;99.90;;;;;;5121140;28;19974;-81
2022/01/13 14:37:08;;;;;;;;;;;5.10;99.90;;;;;;5119339;28;19924;-80
2022/01/13 14:39:34;;;;;;;;;;;5.00;99.90;;;;;;5120886;28;19969;-80
2022/01/13 14:42:00;;;;;;;;;;;5.00;99.90;;;;;;5119165;28;19928;-81
2022/01/13 14:44:29;;;;;;;;;;;5.00;99.90;;;;;;5118765;28;19967;-80
2022/01/13 14:47:04;;;;;;;;;;;5.00;99.90;;;;;;5122386;28;20015;-80
2022/01/13 14:49:31;;;;;;;;;;;5.00;99.90;;;;;;5124674;28;19970;-80
2022/01/13 14:51:58;;;;;;;;;;;5.00;99.90;;;;;;5121830;28;19978;-79
2022/01/13 14:54:25;;;;;;;;;;;5.00;99.90;;;;;;5122166;28;19973;-80
2022/01/13 14:56:51;;;;;;;;;;;5.00;99.90;;;;;;5119044;28;19962;-80
2022/01/13 14:59:18;;;;;;;;;;;5.00;99.90;;;;;;5119888;28;19928;-81
2022/01/13 15:01:46;;;;;;;;;;;5.00;99.90;;;;;;5120064;28;19949;-80